Prairie Village, KS

9:19 AM CDT on April 19, 2015 (GMT -0500)
Milburn | | Change Station
CLOSE
Current Station
Personal Weather Station
Location: Overland Park, KS
Elevation: 996 ft
Nearby Weather Stations

Elev 996 ft 39.01 °N, 94.68 °W | Updated 4 minutes ago

Overcast
Overcast
56.8 °F
Feels Like 56.8 °F
N
0.0
Wind Variable Wind from North
Gusts 6.0 mph

Today
High -- | Low -- °F
--% Chance of Precip.
Yesterday
High -- | Low -- °F
Precip. -- in
6:36 AM 7:59 PM
New Moon, 1% visible
Pressure 29.70 in
Visibility 10.0 miles
Clouds Overcast 1600 ft
Dew Point 50 °F
Humidity 78%
Rainfall 0.27 in
Snow Depth Not available.
UV 1 out of 12
Pollen 6.40 out of 12
Air Quality Not available.
Flu Activity Sporadic
METAR KMKC 191354Z 32008KT 10SM OVC016 14/12 A2970

More Conditions Fewer Conditions

Pressure 29.70 in
Visibility 10.0 miles
Clouds Overcast 1600 ft
Dew Point 50 °F
Humidity 78%
Rainfall 0.27 in
Snow Depth Not available.
UV 1 out of 12
Pollen 6.40 out of 12
Air Quality Not available.
Flu Activity Sporadic
METAR KMKC 191354Z 32008KT 10SM OVC016 14/12 A2970

More Conditions Fewer Conditions

10-Day Weather Forecast

Almanac

Astronomy

Apr. 19, 2015 Rise Set
Actual Time
Civil Twilight
Nautical Twilight
Astronomical Twilight
Moon
Length of Visible Light
Length of Day
Tomorrow will be .
, % of the Moon is Illuminated

Today's Extremes

State Highs State Lows

Community

WunderPhotos

Upload Photos

1,814,807 photos uploaded!

WunderBlogs® & News

Nearby

Air Quality

  Air Quality AQ Index Pollutant
Not available.

Snow Depth

Station Depth Elevation

Earthquake Activity

City Distance Mag. Time & Date
Minimum magnitude displayed is 2.5.

Coastal Water Temperatures

Place Temperature

Stations

Nearby Weather Stations

Station Location Temp. Windchill Dew Point Humidity Wind Precip. Elev Updated Type